createdAt,value
2018-04-13T00:01:03.116Z,43.33
2018-04-13T00:03:32.334Z,47.87
2018-04-13T00:06:01.637Z,93.47
2018-04-13T00:08:30.896Z,80.77
2018-04-13T00:11:00.286Z,29.33
2018-04-13T00:13:29.474Z,34.33
2018-04-13T00:15:58.591Z,34.73
2018-04-13T00:18:27.834Z,47.50
2018-04-13T00:20:57.265Z,84.43
2018-04-13T00:23:26.397Z,31.00
2018-04-13T00:25:55.437Z,31.10
2018-04-13T00:28:24.824Z,44.10
2018-04-13T00:30:54.021Z,50.07
2018-04-13T00:33:23.173Z,33.73
2018-04-13T00:35:52.560Z,28.23
2018-04-13T00:38:21.623Z,27.00
2018-04-13T00:40:50.888Z,28.20
2018-04-13T00:43:20.046Z,29.47
2018-04-13T00:45:49.436Z,34.23
2018-04-13T00:48:18.546Z,32.23
2018-04-13T00:50:47.793Z,30.27
2018-04-13T00:53:28.354Z,28.57
2018-04-13T00:55:57.568Z,37.00
2018-04-13T01:01:01.900Z,148.80
2018-04-13T01:03:30.953Z,180.20
2018-04-13T01:06:00.030Z,118.77
2018-04-13T01:08:29.171Z,228.77
2018-04-13T01:10:58.327Z,39.03
2018-04-13T01:13:27.567Z,51.67
2018-04-13T01:15:56.632Z,87.63
2018-04-13T01:18:25.758Z,54.43
2018-04-13T01:20:54.890Z,37.13
2018-04-13T01:23:24.023Z,49.73
2018-04-13T01:25:53.276Z,41.23
2018-04-13T01:28:22.350Z,40.07
2018-04-13T01:30:51.770Z,33.20
2018-04-13T01:33:20.817Z,30.77
2018-04-13T01:35:49.825Z,43.10
2018-04-13T01:38:19.080Z,30.87
2018-04-13T01:40:48.379Z,70.90
2018-04-13T01:43:17.546Z,61.93
2018-04-13T01:45:46.954Z,66.17
2018-04-13T01:48:16.206Z,115.83
2018-04-13T01:50:45.278Z,46.97
2018-04-13T01:53:14.455Z,38.83
2018-04-13T01:55:43.708Z,36.00
2018-04-13T01:58:12.821Z,34.27
2018-04-13T02:00:42.362Z,303.73
2018-04-13T02:03:11.691Z,89.50
2018-04-13T02:05:40.906Z,42.53
2018-04-13T02:08:10.075Z,36.47
2018-04-13T02:10:39.168Z,31.03
2018-04-13T02:13:08.656Z,29.37
2018-04-13T02:15:37.764Z,35.80
2018-04-13T02:18:06.921Z,38.73
2018-04-13T02:20:36.168Z,37.00
2018-04-13T02:23:05.327Z,40.27
2018-04-13T02:25:34.509Z,35.30
2018-04-13T02:28:03.621Z,49.27
2018-04-13T02:30:32.828Z,198.90
2018-04-13T02:33:02.057Z,42.70
2018-04-13T02:35:31.129Z,39.50
2018-04-13T02:38:00.211Z,60.67
2018-04-13T02:40:29.304Z,98.67
2018-04-13T02:42:58.381Z,42.60
2018-04-13T02:45:27.613Z,45.03
2018-04-13T02:47:56.803Z,47.03
2018-04-13T02:50:25.914Z,96.43
2018-04-13T02:52:54.868Z,57.17
2018-04-13T02:55:23.951Z,90.00
2018-04-13T02:57:52.928Z,63.17
2018-04-13T03:00:22.219Z,54.03
2018-04-13T03:05:27.035Z,76.60
2018-04-13T03:07:56.162Z,133.97
2018-04-13T03:10:25.230Z,69.17
2018-04-13T03:12:54.368Z,61.53
2018-04-13T03:15:23.626Z,63.00
2018-04-13T03:17:53.070Z,61.23
2018-04-13T03:20:22.446Z,54.87
2018-04-13T03:22:51.474Z,57.40
2018-04-13T03:25:20.523Z,50.80
2018-04-13T03:27:49.615Z,69.80
2018-04-13T03:30:18.903Z,62.77
2018-04-13T03:32:48.009Z,72.90
2018-04-13T03:35:17.127Z,76.63
2018-04-13T03:37:46.355Z,77.37
2018-04-13T03:40:15.553Z,70.70
2018-04-13T03:42:44.481Z,78.10
2018-04-13T03:45:13.521Z,70.03
2018-04-13T03:47:42.671Z,71.07
2018-04-13T03:50:11.885Z,77.87
2018-04-13T03:52:41.274Z,98.23
2018-04-13T03:55:10.359Z,73.80
2018-04-13T03:57:39.465Z,76.43
2018-04-13T04:00:08.604Z,59.60
2018-04-13T04:02:37.860Z,62.53
2018-04-13T04:05:07.049Z,65.17
2018-04-13T04:07:36.262Z,71.90
2018-04-13T04:10:05.441Z,66.93
2018-04-13T04:12:34.797Z,76.33
2018-04-13T04:15:03.856Z,90.67
2018-04-13T04:17:33.161Z,95.83
2018-04-13T04:20:13.969Z,100.07
2018-04-13T04:22:54.187Z,74.23
2018-04-13T04:25:34.461Z,233.47
2018-04-13T04:28:03.713Z,70.13
2018-04-13T04:30:32.796Z,45.83
2018-04-13T04:33:02.139Z,50.97
2018-04-13T04:35:31.286Z,210.33
2018-04-13T04:38:00.516Z,130.17
2018-04-13T04:40:29.859Z,67.60
2018-04-13T04:42:58.863Z,200.67
2018-04-13T04:45:28.085Z,45.57
2018-04-13T04:47:57.359Z,79.50
2018-04-13T04:50:26.339Z,103.93
2018-04-13T04:52:55.567Z,127.07
2018-04-13T04:55:24.665Z,117.40
2018-04-13T04:57:53.714Z,50.63
2018-04-13T05:00:22.809Z,83.40
2018-04-13T05:02:51.871Z,53.87
2018-04-13T05:05:21.436Z,80.90
2018-04-13T05:07:50.613Z,114.67
2018-04-13T05:10:19.624Z,62.20
2018-04-13T05:12:48.952Z,88.10
2018-04-13T05:15:18.171Z,37.40
2018-04-13T05:17:47.295Z,37.43
2018-04-13T05:20:16.337Z,42.47
2018-04-13T05:22:45.400Z,66.03
2018-04-13T05:25:14.757Z,60.30
2018-04-13T05:27:44.218Z,81.97
2018-04-13T05:30:13.232Z,50.33
2018-04-13T05:32:42.321Z,45.43
2018-04-13T05:35:11.744Z,44.03
2018-04-13T05:37:40.878Z,39.87
2018-04-13T05:40:09.995Z,39.90
2018-04-13T05:42:39.419Z,38.30
2018-04-13T05:45:08.540Z,43.77
2018-04-13T05:47:37.685Z,28.83
2018-04-13T05:50:06.873Z,32.63
2018-04-13T05:52:36.024Z,30.43
2018-04-13T05:55:05.186Z,21.43
2018-04-13T05:57:34.193Z,31.53
2018-04-13T06:00:03.524Z,16.83
2018-04-13T06:02:32.623Z,50.20
2018-04-13T06:05:02.224Z,36.57
2018-04-13T06:07:31.316Z,30.60
2018-04-13T06:10:00.468Z,18.10
2018-04-13T06:12:29.707Z,33.73
2018-04-13T06:14:58.760Z,17.47
2018-04-13T06:17:27.948Z,29.53
2018-04-13T06:19:57.107Z,17.73
2018-04-13T06:22:26.422Z,27.33
2018-04-13T06:24:55.825Z,18.47
2018-04-13T06:27:24.935Z,20.83
2018-04-13T06:29:54.319Z,16.77
2018-04-13T06:32:23.396Z,17.97
2018-04-13T06:34:52.613Z,21.77
2018-04-13T06:37:21.811Z,16.30
2018-04-13T06:39:51.220Z,31.90
2018-04-13T06:42:20.417Z,17.13
2018-04-13T06:44:49.492Z,21.83
2018-04-13T06:47:18.440Z,18.60
2018-04-13T06:49:47.724Z,21.23
2018-04-13T06:52:16.753Z,21.33
2018-04-13T06:54:46.044Z,18.87
2018-04-13T06:57:15.165Z,17.47
2018-04-13T06:59:44.375Z,18.00
2018-04-13T07:02:13.433Z,23.37
2018-04-13T07:04:42.783Z,22.30
2018-04-13T07:07:11.947Z,19.17
2018-04-13T07:09:41.131Z,18.03
2018-04-13T07:12:10.271Z,20.00
2018-04-13T07:14:39.513Z,18.33
2018-04-13T07:17:08.907Z,19.00
2018-04-13T07:19:37.967Z,15.93
2018-04-13T07:22:07.164Z,16.53
2018-04-13T07:24:36.303Z,13.37
2018-04-13T07:27:05.726Z,15.73
2018-04-13T07:29:35.231Z,13.20
2018-04-13T07:32:04.572Z,13.67
2018-04-13T07:34:33.807Z,13.40
2018-04-13T07:37:03.014Z,16.23
2018-04-13T07:39:32.314Z,11.07
2018-04-13T07:42:01.403Z,11.27
2018-04-13T07:44:30.678Z,10.93
2018-04-13T07:46:59.668Z,19.43
2018-04-13T07:49:28.843Z,12.70
2018-04-13T07:51:58.073Z,13.13
2018-04-13T07:54:27.314Z,10.57
2018-04-13T07:56:56.618Z,11.27
2018-04-13T07:59:25.863Z,8.83
2018-04-13T08:01:54.960Z,10.93
2018-04-13T08:04:24.156Z,10.23
2018-04-13T08:06:53.413Z,7.80
2018-04-13T08:09:23.265Z,6.60
2018-04-13T08:11:52.768Z,6.97
2018-04-13T08:14:22.031Z,8.67
2018-04-13T08:16:51.362Z,8.97
2018-04-13T08:19:20.611Z,8.30
2018-04-13T08:21:49.667Z,7.10
2018-04-13T08:24:18.868Z,10.13
2018-04-13T08:26:48.203Z,8.83
2018-04-13T08:29:17.463Z,6.37
2018-04-13T08:31:46.872Z,5.40
2018-04-13T08:34:15.968Z,6.33
2018-04-13T08:36:45.183Z,5.63
2018-04-13T08:39:14.391Z,6.70
2018-04-13T08:41:43.625Z,3.77
2018-04-13T08:44:12.828Z,6.27
2018-04-13T08:46:42.057Z,5.47
2018-04-13T08:49:11.602Z,5.17
2018-04-13T08:51:40.968Z,2.87
2018-04-13T08:54:10.039Z,4.10
2018-04-13T08:56:39.164Z,4.70
2018-04-13T08:59:08.303Z,4.73
2018-04-13T09:01:37.469Z,5.00
2018-04-13T09:04:06.667Z,4.37
2018-04-13T09:06:35.843Z,4.27
2018-04-13T09:09:05.013Z,4.30
2018-04-13T09:11:34.213Z,4.17
2018-04-13T09:14:03.700Z,5.67
2018-04-13T09:16:32.733Z,4.83
2018-04-13T09:19:01.880Z,5.40
2018-04-13T09:21:31.044Z,4.20
2018-04-13T09:24:00.284Z,4.47
2018-04-13T09:26:29.505Z,5.37
2018-04-13T09:28:58.636Z,4.73
2018-04-13T09:31:27.890Z,5.33
2018-04-13T09:33:57.037Z,4.93
2018-04-13T09:36:26.272Z,5.87
2018-04-13T09:38:55.389Z,5.23
2018-04-13T09:41:24.532Z,7.50
2018-04-13T09:43:53.895Z,5.80
2018-04-13T09:46:22.859Z,6.17
2018-04-13T09:48:51.988Z,4.27
2018-04-13T09:51:21.030Z,5.57
2018-04-13T09:53:50.234Z,4.60
2018-04-13T09:56:19.529Z,5.77
2018-04-13T09:58:48.643Z,4.27
2018-04-13T10:01:17.746Z,5.37
2018-04-13T10:03:50.025Z,5.17
2018-04-13T10:06:19.305Z,7.57
2018-04-13T10:08:48.511Z,7.30
2018-04-13T10:11:17.614Z,4.70
2018-04-13T10:13:46.687Z,5.33
2018-04-13T10:16:16.020Z,7.37
2018-04-13T10:18:45.437Z,5.17
2018-04-13T10:21:14.637Z,5.87
2018-04-13T10:23:43.675Z,4.23
2018-04-13T10:26:12.883Z,4.37
2018-04-13T10:28:41.757Z,4.20
2018-04-13T10:31:10.747Z,4.17
2018-04-13T10:33:39.848Z,7.30
2018-04-13T10:36:09.079Z,7.00
2018-04-13T10:38:38.348Z,5.40
2018-04-13T10:41:07.656Z,5.73
2018-04-13T10:43:36.981Z,4.70
2018-04-13T10:46:06.253Z,7.17
2018-04-13T10:48:35.516Z,5.33
2018-04-13T10:51:04.756Z,5.63
2018-04-13T10:53:34.419Z,5.97
2018-04-13T10:56:03.825Z,5.57
2018-04-13T10:58:32.854Z,4.83
2018-04-13T11:01:01.876Z,5.40
2018-04-13T11:03:31.051Z,6.23
2018-04-13T11:06:00.261Z,5.20
2018-04-13T11:08:29.348Z,5.80
2018-04-13T11:10:58.343Z,7.90
2018-04-13T11:13:27.535Z,7.27
2018-04-13T11:15:56.693Z,6.30
2018-04-13T11:18:25.697Z,6.13
2018-04-13T11:20:54.783Z,6.87
2018-04-13T11:23:24.127Z,6.60
2018-04-13T11:25:53.334Z,6.87
2018-04-13T11:28:22.676Z,7.07
2018-04-13T11:30:51.529Z,6.17
2018-04-13T11:33:20.729Z,6.93
2018-04-13T11:35:49.820Z,7.60
2018-04-13T11:38:19.014Z,6.80
2018-04-13T11:40:48.548Z,6.10
2018-04-13T11:43:17.671Z,5.67
2018-04-13T11:45:47.048Z,6.83
2018-04-13T11:48:16.343Z,5.77
2018-04-13T11:50:45.412Z,8.63
2018-04-13T11:53:14.554Z,6.47
2018-04-13T11:55:43.509Z,6.17
2018-04-13T11:58:12.555Z,6.17
2018-04-13T12:00:41.643Z,6.97
2018-04-13T12:03:10.625Z,6.93
2018-04-13T12:05:39.669Z,7.30
2018-04-13T12:08:08.726Z,6.57
2018-04-13T12:10:38.030Z,7.17
2018-04-13T12:13:07.276Z,6.63
2018-04-13T12:15:36.580Z,9.27
2018-04-13T12:18:05.721Z,7.53
2018-04-13T12:20:34.976Z,9.37
2018-04-13T12:23:04.171Z,7.10
2018-04-13T12:25:33.517Z,10.27
2018-04-13T12:28:02.730Z,8.13
2018-04-13T12:30:31.831Z,8.60
2018-04-13T12:33:01.043Z,10.97
2018-04-13T12:35:30.239Z,10.30
2018-04-13T12:37:59.303Z,9.33
2018-04-13T12:40:28.470Z,8.77
2018-04-13T12:42:57.661Z,7.23
2018-04-13T12:45:26.815Z,9.63
2018-04-13T12:47:56.016Z,9.13
2018-04-13T12:50:25.256Z,9.20
2018-04-13T12:52:54.709Z,8.07
2018-04-13T12:55:24.013Z,9.17
2018-04-13T12:57:52.969Z,10.30
2018-04-13T13:00:22.010Z,9.90
2018-04-13T13:02:51.191Z,10.73
2018-04-13T13:05:20.239Z,9.13
2018-04-13T13:07:49.353Z,13.63
2018-04-13T13:10:18.422Z,10.07
2018-04-13T13:12:47.620Z,9.00
2018-04-13T13:15:16.841Z,10.33
2018-04-13T13:17:45.917Z,8.73
2018-04-13T13:20:15.056Z,12.13
2018-04-13T13:22:44.221Z,13.77
2018-04-13T13:25:13.423Z,10.60
2018-04-13T13:27:42.670Z,13.10
2018-04-13T13:30:11.725Z,9.97
2018-04-13T13:32:40.913Z,14.13
2018-04-13T13:35:10.116Z,12.93
2018-04-13T13:37:39.266Z,11.10
2018-04-13T13:40:08.451Z,12.70
2018-04-13T13:42:37.826Z,11.57
2018-04-13T13:45:06.819Z,18.67
2018-04-13T13:47:35.960Z,13.43
2018-04-13T13:50:04.976Z,12.13
2018-04-13T13:52:34.469Z,13.40
2018-04-13T13:55:03.603Z,14.90
2018-04-13T13:57:32.704Z,29.37
2018-04-13T14:00:02.056Z,12.03
2018-04-13T14:02:31.807Z,12.57
2018-04-13T14:05:01.004Z,14.70
2018-04-13T14:07:30.162Z,13.73
2018-04-13T14:09:59.303Z,17.23
2018-04-13T14:12:28.422Z,26.67
2018-04-13T14:14:58.183Z,17.60
2018-04-13T14:17:27.288Z,19.83
2018-04-13T14:19:56.484Z,25.03
2018-04-13T14:22:25.888Z,15.13
2018-04-13T14:24:55.108Z,22.67
2018-04-13T14:27:24.185Z,19.90
2018-04-13T14:29:53.473Z,24.73
2018-04-13T14:32:22.497Z,14.50
2018-04-13T14:34:51.615Z,24.27
2018-04-13T14:37:20.640Z,39.67
2018-04-13T14:39:49.837Z,30.90
2018-04-13T14:42:19.065Z,20.10
2018-04-13T14:44:48.025Z,20.63
2018-04-13T14:47:16.873Z,18.43
2018-04-13T14:49:45.909Z,38.73
2018-04-13T14:52:14.880Z,28.27
2018-04-13T14:54:44.445Z,18.53
2018-04-13T14:57:13.439Z,22.87
2018-04-13T14:59:42.571Z,40.27
2018-04-13T15:02:11.675Z,30.07
2018-04-13T15:04:40.604Z,28.97
2018-04-13T15:07:09.588Z,38.87
2018-04-13T15:09:38.607Z,39.20
2018-04-13T15:12:07.515Z,26.30
2018-04-13T15:14:36.436Z,41.43
2018-04-13T15:17:05.385Z,32.47
2018-04-13T15:19:34.320Z,25.83
2018-04-13T15:22:03.242Z,52.33
2018-04-13T15:24:32.212Z,61.93
2018-04-13T15:27:01.089Z,34.20
2018-04-13T15:29:30.017Z,47.40
2018-04-13T15:31:58.947Z,50.80
2018-04-13T15:34:27.994Z,51.00
2018-04-13T15:36:57.059Z,60.77
2018-04-13T15:39:26.771Z,61.33
2018-04-13T15:41:55.686Z,38.77
2018-04-13T15:44:24.620Z,65.93
2018-04-13T15:46:53.400Z,67.27
2018-04-13T15:49:22.527Z,107.70
2018-04-13T15:51:51.554Z,56.50
2018-04-13T15:54:20.359Z,88.90
2018-04-13T15:56:49.675Z,63.03
2018-04-13T15:59:18.952Z,94.93
2018-04-13T16:01:48.155Z,65.47
2018-04-13T16:04:17.027Z,48.87
2018-04-13T16:06:46.154Z,63.37
2018-04-13T16:09:15.006Z,124.03
2018-04-13T16:11:43.939Z,87.23
2018-04-13T16:14:12.773Z,69.70
2018-04-13T16:16:41.681Z,60.47
2018-04-13T16:19:10.492Z,56.67
2018-04-13T16:21:39.469Z,63.80
2018-04-13T16:24:08.355Z,109.90
2018-04-13T16:26:37.157Z,85.23
2018-04-13T16:29:06.051Z,65.60
2018-04-13T16:31:34.930Z,95.47
2018-04-13T16:34:04.964Z,120.40
2018-04-13T16:36:33.858Z,141.93
2018-04-13T16:39:02.798Z,100.80
2018-04-13T16:41:31.568Z,94.37
2018-04-13T16:44:00.396Z,159.80
2018-04-13T16:46:29.440Z,172.00
2018-04-13T16:48:58.368Z,68.57
2018-04-13T16:51:27.505Z,67.67
2018-04-13T16:53:56.488Z,126.53
2018-04-13T16:56:25.378Z,143.07
2018-04-13T16:58:54.249Z,90.73
2018-04-13T17:01:23.159Z,91.10
2018-04-13T17:03:52.107Z,98.63
2018-04-13T17:06:20.996Z,110.50
2018-04-13T17:08:49.799Z,129.23
2018-04-13T17:11:18.797Z,94.20
2018-04-13T17:13:47.674Z,94.43
2018-04-13T17:16:16.727Z,147.63
2018-04-13T17:18:45.742Z,90.75
2018-04-13T17:21:14.564Z,68.33
2018-04-13T17:23:43.487Z,82.67
2018-04-13T17:26:12.380Z,118.30
2018-04-13T17:28:41.293Z,81.33
2018-04-13T17:31:10.161Z,113.27
2018-04-13T17:33:38.972Z,90.57
2018-04-13T17:36:07.840Z,87.47
2018-04-13T17:38:36.884Z,130.48
2018-04-13T17:41:05.825Z,80.50
2018-04-13T17:43:34.736Z,85.20
2018-04-13T17:46:03.664Z,93.00
2018-04-13T17:48:32.573Z,91.07
2018-04-13T17:51:01.946Z,99.23
2018-04-13T17:53:30.892Z,94.87
2018-04-13T17:55:59.683Z,110.73
2018-04-13T17:58:28.524Z,134.37
2018-04-13T18:00:57.428Z,123.07
2018-04-13T18:03:26.241Z,232.07
2018-04-13T18:05:55.307Z,159.80
2018-04-13T18:08:24.190Z,99.97
2018-04-13T18:10:53.240Z,109.40
2018-04-13T18:13:22.078Z,147.60
2018-04-13T18:15:51.234Z,174.67
2018-04-13T18:18:20.394Z,136.50
2018-04-13T18:20:49.340Z,160.93
2018-04-13T18:23:18.161Z,127.03
2018-04-13T18:25:47.097Z,123.53
2018-04-13T18:28:16.038Z,141.37
2018-04-13T18:30:44.821Z,81.07
2018-04-13T18:33:13.669Z,78.20
2018-04-13T18:35:42.612Z,132.27
2018-04-13T18:38:11.573Z,130.65
2018-04-13T18:40:40.440Z,110.18
2018-04-13T18:43:09.341Z,120.67
2018-04-13T18:45:38.134Z,124.63
2018-04-13T18:48:07.060Z,131.27
2018-04-13T18:50:35.936Z,116.77
2018-04-13T18:53:04.724Z,90.63
2018-04-13T18:55:33.613Z,159.03
2018-04-13T18:58:02.417Z,108.10
2018-04-13T19:00:31.573Z,100.53
2018-04-13T19:03:00.479Z,99.10
2018-04-13T19:05:29.272Z,124.10
2018-04-13T19:07:58.137Z,91.03
2018-04-13T19:10:26.917Z,76.07
2018-04-13T19:12:56.037Z,63.57
2018-04-13T19:15:24.946Z,119.77
2018-04-13T19:17:53.828Z,84.27
2018-04-13T19:20:22.858Z,91.50
2018-04-13T19:22:51.798Z,215.93
2018-04-13T19:25:20.650Z,67.90
2018-04-13T19:27:49.485Z,85.37
2018-04-13T19:30:18.521Z,76.53
2018-04-13T19:32:47.379Z,82.70
2018-04-13T19:35:16.556Z,94.13
2018-04-13T19:37:45.351Z,115.87
2018-04-13T19:40:14.385Z,114.93
2018-04-13T19:42:43.167Z,78.00
2018-04-13T19:45:11.973Z,93.10
2018-04-13T19:47:40.952Z,74.27
2018-04-13T19:50:09.860Z,100.80
2018-04-13T19:52:38.735Z,57.13
2018-04-13T19:55:07.906Z,70.30
2018-04-13T19:57:36.683Z,87.03
2018-04-13T20:00:05.579Z,103.63
2018-04-13T20:02:34.391Z,94.27
2018-04-13T20:05:03.205Z,72.77
2018-04-13T20:07:32.048Z,84.13
2018-04-13T20:10:00.940Z,83.10
2018-04-13T20:12:29.779Z,83.20
2018-04-13T20:14:58.601Z,51.07
2018-04-13T20:17:27.744Z,115.70
2018-04-13T20:19:56.749Z,94.03
2018-04-13T20:22:25.796Z,49.03
2018-04-13T20:24:54.621Z,45.63
2018-04-13T20:27:23.531Z,61.17
2018-04-13T20:29:52.536Z,44.53
2018-04-13T20:32:21.352Z,38.67
2018-04-13T20:34:50.771Z,51.00
2018-04-13T20:37:19.606Z,64.10
2018-04-13T20:39:48.544Z,43.40
2018-04-13T20:42:17.368Z,35.33
2018-04-13T20:44:46.232Z,37.67
2018-04-13T20:47:15.126Z,41.73
2018-04-13T20:49:43.960Z,36.53
2018-04-13T20:52:13.152Z,46.40
2018-04-13T20:54:41.976Z,46.83
2018-04-13T20:57:10.925Z,39.90
2018-04-13T20:59:39.932Z,39.93
2018-04-13T21:02:08.931Z,52.77
2018-04-13T21:04:37.921Z,48.67
2018-04-13T21:07:06.873Z,32.67
2018-04-13T21:09:35.911Z,42.07
2018-04-13T21:12:05.053Z,38.33
2018-04-13T21:14:33.998Z,34.10
2018-04-13T21:17:03.158Z,36.30
2018-04-13T21:19:32.190Z,39.40
2018-04-13T21:22:00.963Z,41.77
2018-04-13T21:24:29.807Z,38.97
2018-04-13T21:26:58.752Z,34.67
2018-04-13T21:29:27.710Z,54.67
2018-04-13T21:31:56.640Z,40.10
2018-04-13T21:34:25.533Z,41.60
2018-04-13T21:36:54.480Z,42.03
2018-04-13T21:39:23.408Z,39.80
2018-04-13T21:41:52.500Z,46.07
2018-04-13T21:44:21.465Z,50.27
2018-04-13T21:46:50.348Z,86.60
2018-04-13T21:49:19.289Z,40.60
2018-04-13T21:51:48.258Z,77.80
2018-04-13T21:54:17.076Z,52.27
2018-04-13T21:56:45.913Z,40.67
2018-04-13T21:59:14.910Z,50.77
2018-04-13T22:01:43.792Z,38.00
2018-04-13T22:04:12.903Z,34.90
2018-04-13T22:06:41.689Z,32.53
2018-04-13T22:09:10.724Z,42.63
2018-04-13T22:11:39.668Z,35.00
2018-04-13T22:14:20.171Z,37.73
2018-04-13T22:16:49.184Z,34.63
2018-04-13T22:19:18.137Z,41.87
2018-04-13T22:21:47.004Z,45.90
2018-04-13T22:24:15.896Z,29.00
2018-04-13T22:26:44.848Z,33.40
2018-04-13T22:29:13.823Z,31.07
2018-04-13T22:31:42.928Z,34.03
2018-04-13T22:34:11.781Z,38.33
2018-04-13T22:36:41.026Z,36.00
2018-04-13T22:39:09.855Z,34.73
2018-04-13T22:41:38.916Z,44.40
2018-04-13T22:44:07.820Z,50.63
2018-04-13T22:46:36.752Z,40.57
2018-04-13T22:49:05.682Z,42.57
2018-04-13T22:51:35.432Z,39.23
2018-04-13T22:54:04.201Z,51.53
2018-04-13T22:56:33.360Z,34.90
2018-04-13T22:59:02.397Z,53.50
2018-04-13T23:01:31.260Z,33.53
2018-04-13T23:04:01.024Z,33.13
2018-04-13T23:06:30.133Z,32.80
2018-04-13T23:08:59.165Z,33.53
2018-04-13T23:11:28.208Z,30.53
2018-04-13T23:13:57.304Z,32.03
2018-04-13T23:16:26.458Z,30.00
2018-04-13T23:18:55.559Z,24.57
2018-04-13T23:21:24.627Z,43.97
2018-04-13T23:23:53.748Z,24.47
2018-04-13T23:26:22.801Z,26.20
2018-04-13T23:28:52.135Z,23.03
2018-04-13T23:31:21.241Z,27.33
2018-04-13T23:33:50.280Z,24.90
2018-04-13T23:36:19.936Z,25.17
2018-04-13T23:38:48.981Z,23.63
2018-04-13T23:41:18.079Z,22.87
2018-04-13T23:43:47.241Z,25.07
2018-04-13T23:46:16.381Z,28.63
2018-04-13T23:48:45.371Z,40.40
2018-04-13T23:51:14.564Z,28.27
2018-04-13T23:53:43.720Z,24.00
2018-04-13T23:56:13.021Z,23.60
2018-04-13T23:58:42.078Z,23.87
